sensor_id;sensor_type;location;lat;lon;timestamp;temperature;humidity
6986;DHT22;3533;51.246;6.850;2022-07-26T00:01:34;24.90;49.90
6986;DHT22;3533;51.246;6.850;2022-07-26T00:04:01;24.80;49.80
6986;DHT22;3533;51.246;6.850;2022-07-26T00:06:27;24.90;49.90
6986;DHT22;3533;51.246;6.850;2022-07-26T00:08:55;24.90;49.90
6986;DHT22;3533;51.246;6.850;2022-07-26T00:11:22;24.80;49.90
6986;DHT22;3533;51.246;6.850;2022-07-26T00:13:50;24.90;49.90
6986;DHT22;3533;51.246;6.850;2022-07-26T00:16:18;24.90;49.90
6986;DHT22;3533;51.246;6.850;2022-07-26T00:18:45;24.90;50.00
6986;DHT22;3533;51.246;6.850;2022-07-26T00:21:14;24.90;50.00
6986;DHT22;3533;51.246;6.850;2022-07-26T00:23:40;24.90;49.90
6986;DHT22;3533;51.246;6.850;2022-07-26T00:26:06;24.90;49.90
6986;DHT22;3533;51.246;6.850;2022-07-26T00:28:32;24.90;50.00
6986;DHT22;3533;51.246;6.850;2022-07-26T00:30:58;24.80;49.80
6986;DHT22;3533;51.246;6.850;2022-07-26T00:33:24;24.90;49.90
6986;DHT22;3533;51.246;6.850;2022-07-26T00:35:49;24.90;49.90
6986;DHT22;3533;51.246;6.850;2022-07-26T00:38:15;24.90;49.90
6986;DHT22;3533;51.246;6.850;2022-07-26T00:40:41;24.90;49.90
6986;DHT22;3533;51.246;6.850;2022-07-26T00:43:07;24.90;49.90
6986;DHT22;3533;51.246;6.850;2022-07-26T00:45:33;24.90;49.90
6986;DHT22;3533;51.246;6.850;2022-07-26T00:47:59;24.90;49.90
6986;DHT22;3533;51.246;6.850;2022-07-26T00:50:26;24.90;49.90
6986;DHT22;3533;51.246;6.850;2022-07-26T00:52:52;24.90;49.90
6986;DHT22;3533;51.246;6.850;2022-07-26T00:55:19;24.90;49.80
6986;DHT22;3533;51.246;6.850;2022-07-26T00:57:45;24.90;49.80
6986;DHT22;3533;51.246;6.850;2022-07-26T01:00:14;24.90;49.90
6986;DHT22;3533;51.246;6.850;2022-07-26T01:02:41;24.90;49.90
6986;DHT22;3533;51.246;6.850;2022-07-26T01:05:08;24.90;49.90
6986;DHT22;3533;51.246;6.850;2022-07-26T01:07:35;24.90;49.90
6986;DHT22;3533;51.246;6.850;2022-07-26T01:10:02;24.90;49.80
6986;DHT22;3533;51.246;6.850;2022-07-26T01:12:28;24.90;50.00
6986;DHT22;3533;51.246;6.850;2022-07-26T01:14:54;24.90;50.00
6986;DHT22;3533;51.246;6.850;2022-07-26T01:17:20;24.90;49.90
6986;DHT22;3533;51.246;6.850;2022-07-26T01:19:46;24.90;49.90
6986;DHT22;3533;51.246;6.850;2022-07-26T01:22:12;24.90;49.90
6986;DHT22;3533;51.246;6.850;2022-07-26T01:24:38;24.90;49.90
6986;DHT22;3533;51.246;6.850;2022-07-26T01:27:03;24.90;49.90
6986;DHT22;3533;51.246;6.850;2022-07-26T01:29:29;24.90;49.90
6986;DHT22;3533;51.246;6.850;2022-07-26T01:31:55;24.90;49.90
6986;DHT22;3533;51.246;6.850;2022-07-26T01:34:21;24.90;49.90
6986;DHT22;3533;51.246;6.850;2022-07-26T01:36:47;24.90;49.90
6986;DHT22;3533;51.246;6.850;2022-07-26T01:39:14;24.90;49.90
6986;DHT22;3533;51.246;6.850;2022-07-26T01:41:41;24.80;49.70
6986;DHT22;3533;51.246;6.850;2022-07-26T01:44:07;24.90;49.90
6986;DHT22;3533;51.246;6.850;2022-07-26T01:46:33;24.80;49.80
6986;DHT22;3533;51.246;6.850;2022-07-26T01:49:00;24.90;49.90
6986;DHT22;3533;51.246;6.850;2022-07-26T01:51:26;24.90;49.80
6986;DHT22;3533;51.246;6.850;2022-07-26T01:53:52;24.90;49.80
6986;DHT22;3533;51.246;6.850;2022-07-26T01:56:18;24.90;49.90
6986;DHT22;3533;51.246;6.850;2022-07-26T01:58:44;24.80;49.80
6986;DHT22;3533;51.246;6.850;2022-07-26T02:01:10;24.90;49.90
6986;DHT22;3533;51.246;6.850;2022-07-26T02:03:35;24.90;49.10
6986;DHT22;3533;51.246;6.850;2022-07-26T02:06:02;24.90;49.80
6986;DHT22;3533;51.246;6.850;2022-07-26T02:08:27;24.90;49.80
6986;DHT22;3533;51.246;6.850;2022-07-26T02:10:53;24.90;49.80
6986;DHT22;3533;51.246;6.850;2022-07-26T02:13:26;24.90;49.80
6986;DHT22;3533;51.246;6.850;2022-07-26T02:15:52;24.90;49.80
6986;DHT22;3533;51.246;6.850;2022-07-26T02:18:20;24.80;49.70
6986;DHT22;3533;51.246;6.850;2022-07-26T02:20:46;24.90;49.80
6986;DHT22;3533;51.246;6.850;2022-07-26T02:23:12;24.80;49.70
6986;DHT22;3533;51.246;6.850;2022-07-26T02:25:38;24.90;49.80
6986;DHT22;3533;51.246;6.850;2022-07-26T02:28:04;24.80;49.70
6986;DHT22;3533;51.246;6.850;2022-07-26T02:30:30;24.90;49.80
6986;DHT22;3533;51.246;6.850;2022-07-26T02:32:57;24.90;49.80
6986;DHT22;3533;51.246;6.850;2022-07-26T02:35:22;24.90;49.80
6986;DHT22;3533;51.246;6.850;2022-07-26T02:37:48;24.90;49.80
6986;DHT22;3533;51.246;6.850;2022-07-26T02:40:14;24.90;49.80
6986;DHT22;3533;51.246;6.850;2022-07-26T02:42:40;24.90;49.80
6986;DHT22;3533;51.246;6.850;2022-07-26T02:45:06;24.80;49.70
6986;DHT22;3533;51.246;6.850;2022-07-26T02:47:32;24.90;49.80
6986;DHT22;3533;51.246;6.850;2022-07-26T02:49:58;24.90;49.80
6986;DHT22;3533;51.246;6.850;2022-07-26T02:52:24;24.90;49.80
6986;DHT22;3533;51.246;6.850;2022-07-26T02:54:50;24.90;49.80
6986;DHT22;3533;51.246;6.850;2022-07-26T02:57:15;24.90;49.80
6986;DHT22;3533;51.246;6.850;2022-07-26T02:59:41;24.90;49.80
6986;DHT22;3533;51.246;6.850;2022-07-26T03:02:06;24.80;49.60
6986;DHT22;3533;51.246;6.850;2022-07-26T03:04:32;24.90;49.80
6986;DHT22;3533;51.246;6.850;2022-07-26T03:06:58;24.80;49.70
6986;DHT22;3533;51.246;6.850;2022-07-26T03:09:23;24.80;49.70
6986;DHT22;3533;51.246;6.850;2022-07-26T03:11:49;24.90;49.70
6986;DHT22;3533;51.246;6.850;2022-07-26T03:14:15;24.80;49.60
6986;DHT22;3533;51.246;6.850;2022-07-26T03:16:41;24.80;49.60
6986;DHT22;3533;51.246;6.850;2022-07-26T03:19:06;24.90;49.70
6986;DHT22;3533;51.246;6.850;2022-07-26T03:21:32;24.90;49.70
6986;DHT22;3533;51.246;6.850;2022-07-26T03:23:58;24.80;49.60
6986;DHT22;3533;51.246;6.850;2022-07-26T03:26:23;24.80;49.70
6986;DHT22;3533;51.246;6.850;2022-07-26T03:28:49;24.90;49.80
6986;DHT22;3533;51.246;6.850;2022-07-26T03:31:14;24.90;49.80
6986;DHT22;3533;51.246;6.850;2022-07-26T03:33:40;24.80;49.60
6986;DHT22;3533;51.246;6.850;2022-07-26T03:36:06;24.90;49.80
6986;DHT22;3533;51.246;6.850;2022-07-26T03:38:38;24.80;49.60
6986;DHT22;3533;51.246;6.850;2022-07-26T03:41:04;24.80;49.60
6986;DHT22;3533;51.246;6.850;2022-07-26T03:43:30;24.90;49.70
6986;DHT22;3533;51.246;6.850;2022-07-26T03:45:56;24.90;49.70
6986;DHT22;3533;51.246;6.850;2022-07-26T03:48:21;24.80;49.60
6986;DHT22;3533;51.246;6.850;2022-07-26T03:50:47;24.90;49.70
6986;DHT22;3533;51.246;6.850;2022-07-26T03:53:13;24.90;49.70
6986;DHT22;3533;51.246;6.850;2022-07-26T03:55:38;24.90;49.70
6986;DHT22;3533;51.246;6.850;2022-07-26T03:58:23;24.90;49.70
6986;DHT22;3533;51.246;6.850;2022-07-26T04:00:48;24.80;49.50
6986;DHT22;3533;51.246;6.850;2022-07-26T04:03:14;24.90;49.70
6986;DHT22;3533;51.246;6.850;2022-07-26T04:05:40;24.80;49.60
6986;DHT22;3533;51.246;6.850;2022-07-26T04:08:06;24.80;49.60
6986;DHT22;3533;51.246;6.850;2022-07-26T04:10:31;24.80;49.50
6986;DHT22;3533;51.246;6.850;2022-07-26T04:12:57;24.80;49.60
6986;DHT22;3533;51.246;6.850;2022-07-26T04:15:23;24.80;49.60
6986;DHT22;3533;51.246;6.850;2022-07-26T04:17:49;24.80;49.60
6986;DHT22;3533;51.246;6.850;2022-07-26T04:20:16;24.80;49.60
6986;DHT22;3533;51.246;6.850;2022-07-26T04:22:44;24.80;49.60
6986;DHT22;3533;51.246;6.850;2022-07-26T04:25:09;24.80;49.60
6986;DHT22;3533;51.246;6.850;2022-07-26T04:27:36;24.90;49.70
6986;DHT22;3533;51.246;6.850;2022-07-26T04:30:03;24.80;49.50
6986;DHT22;3533;51.246;6.850;2022-07-26T04:32:30;24.90;49.60
6986;DHT22;3533;51.246;6.850;2022-07-26T04:34:58;24.80;49.50
6986;DHT22;3533;51.246;6.850;2022-07-26T04:37:23;24.90;49.60
6986;DHT22;3533;51.246;6.850;2022-07-26T04:39:49;24.80;49.50
6986;DHT22;3533;51.246;6.850;2022-07-26T04:42:15;24.90;49.60
6986;DHT22;3533;51.246;6.850;2022-07-26T04:44:41;24.90;49.60
6986;DHT22;3533;51.246;6.850;2022-07-26T04:47:07;24.90;49.60
6986;DHT22;3533;51.246;6.850;2022-07-26T04:49:33;24.90;49.50
6986;DHT22;3533;51.246;6.850;2022-07-26T04:51:59;24.90;49.50
6986;DHT22;3533;51.246;6.850;2022-07-26T04:54:24;24.90;49.60
6986;DHT22;3533;51.246;6.850;2022-07-26T04:56:50;24.90;49.50
6986;DHT22;3533;51.246;6.850;2022-07-26T04:59:16;24.90;49.60
6986;DHT22;3533;51.246;6.850;2022-07-26T05:01:44;24.90;49.50
6986;DHT22;3533;51.246;6.850;2022-07-26T05:04:10;24.90;49.50
6986;DHT22;3533;51.246;6.850;2022-07-26T05:06:36;24.90;49.50
6986;DHT22;3533;51.246;6.850;2022-07-26T05:09:03;24.90;49.50
6986;DHT22;3533;51.246;6.850;2022-07-26T05:11:29;25.00;49.50
6986;DHT22;3533;51.246;6.850;2022-07-26T05:13:54;25.00;49.40
6986;DHT22;3533;51.246;6.850;2022-07-26T05:16:20;25.00;49.30
6986;DHT22;3533;51.246;6.850;2022-07-26T05:18:46;25.00;49.20
6986;DHT22;3533;51.246;6.850;2022-07-26T05:21:11;25.10;49.10
6986;DHT22;3533;51.246;6.850;2022-07-26T05:23:37;25.10;49.10
6986;DHT22;3533;51.246;6.850;2022-07-26T05:26:03;25.10;49.10
6986;DHT22;3533;51.246;6.850;2022-07-26T05:28:28;25.10;49.10
6986;DHT22;3533;51.246;6.850;2022-07-26T05:30:54;25.10;49.20
6986;DHT22;3533;51.246;6.850;2022-07-26T05:33:20;25.10;49.10
6986;DHT22;3533;51.246;6.850;2022-07-26T05:35:46;25.10;49.10
6986;DHT22;3533;51.246;6.850;2022-07-26T05:38:11;25.10;49.10
6986;DHT22;3533;51.246;6.850;2022-07-26T05:40:37;25.10;49.10
6986;DHT22;3533;51.246;6.850;2022-07-26T05:43:03;25.10;49.10
6986;DHT22;3533;51.246;6.850;2022-07-26T05:45:29;25.10;49.10
6986;DHT22;3533;51.246;6.850;2022-07-26T05:47:55;25.10;49.10
6986;DHT22;3533;51.246;6.850;2022-07-26T05:50:21;25.10;49.10
6986;DHT22;3533;51.246;6.850;2022-07-26T05:52:47;25.10;49.20
6986;DHT22;3533;51.246;6.850;2022-07-26T05:55:13;25.10;49.10
6986;DHT22;3533;51.246;6.850;2022-07-26T05:57:40;25.10;49.10
6986;DHT22;3533;51.246;6.850;2022-07-26T06:00:08;25.10;49.10
6986;DHT22;3533;51.246;6.850;2022-07-26T06:02:34;25.10;49.10
6986;DHT22;3533;51.246;6.850;2022-07-26T06:04:59;25.10;49.10
6986;DHT22;3533;51.246;6.850;2022-07-26T06:07:25;25.10;49.10
6986;DHT22;3533;51.246;6.850;2022-07-26T06:09:51;25.10;49.20
6986;DHT22;3533;51.246;6.850;2022-07-26T06:12:16;25.10;49.20
6986;DHT22;3533;51.246;6.850;2022-07-26T06:14:42;25.10;49.20
6986;DHT22;3533;51.246;6.850;2022-07-26T06:17:07;25.10;49.20
6986;DHT22;3533;51.246;6.850;2022-07-26T06:19:33;25.10;49.20
6986;DHT22;3533;51.246;6.850;2022-07-26T06:21:59;25.10;49.20
6986;DHT22;3533;51.246;6.850;2022-07-26T06:24:25;25.10;49.20
6986;DHT22;3533;51.246;6.850;2022-07-26T06:26:52;25.10;49.30
6986;DHT22;3533;51.246;6.850;2022-07-26T06:29:20;25.10;49.30
6986;DHT22;3533;51.246;6.850;2022-07-26T06:31:46;25.10;49.20
6986;DHT22;3533;51.246;6.850;2022-07-26T06:34:12;25.00;49.10
6986;DHT22;3533;51.246;6.850;2022-07-26T06:36:37;25.00;49.10
6986;DHT22;3533;51.246;6.850;2022-07-26T06:39:05;25.00;49.20
6986;DHT22;3533;51.246;6.850;2022-07-26T06:41:30;25.00;49.30
6986;DHT22;3533;51.246;6.850;2022-07-26T06:43:56;25.10;49.20
6986;DHT22;3533;51.246;6.850;2022-07-26T06:46:22;25.00;49.30
6986;DHT22;3533;51.246;6.850;2022-07-26T06:48:48;25.00;49.30
6986;DHT22;3533;51.246;6.850;2022-07-26T06:51:14;25.00;49.20
6986;DHT22;3533;51.246;6.850;2022-07-26T06:53:41;25.00;49.20
6986;DHT22;3533;51.246;6.850;2022-07-26T06:56:07;25.00;49.20
6986;DHT22;3533;51.246;6.850;2022-07-26T06:58:32;25.00;49.30
6986;DHT22;3533;51.246;6.850;2022-07-26T07:00:59;25.00;49.20
6986;DHT22;3533;51.246;6.850;2022-07-26T07:03:26;25.00;49.30
6986;DHT22;3533;51.246;6.850;2022-07-26T07:05:51;25.00;49.20
6986;DHT22;3533;51.246;6.850;2022-07-26T07:08:17;25.00;49.20
6986;DHT22;3533;51.246;6.850;2022-07-26T07:10:45;25.00;49.20
6986;DHT22;3533;51.246;6.850;2022-07-26T07:13:11;25.00;49.20
6986;DHT22;3533;51.246;6.850;2022-07-26T07:15:37;25.00;49.30
6986;DHT22;3533;51.246;6.850;2022-07-26T07:18:05;25.00;49.30
6986;DHT22;3533;51.246;6.850;2022-07-26T07:20:30;25.00;49.30
6986;DHT22;3533;51.246;6.850;2022-07-26T07:22:56;25.00;49.40
6986;DHT22;3533;51.246;6.850;2022-07-26T07:25:22;25.00;49.40
6986;DHT22;3533;51.246;6.850;2022-07-26T07:27:48;25.00;50.10
6986;DHT22;3533;51.246;6.850;2022-07-26T07:30:15;25.00;49.40
6986;DHT22;3533;51.246;6.850;2022-07-26T07:32:41;25.00;49.40
6986;DHT22;3533;51.246;6.850;2022-07-26T07:35:07;25.00;49.40
6986;DHT22;3533;51.246;6.850;2022-07-26T07:37:34;25.00;49.40
6986;DHT22;3533;51.246;6.850;2022-07-26T07:40:04;25.00;49.40
6986;DHT22;3533;51.246;6.850;2022-07-26T07:42:30;25.00;49.40
6986;DHT22;3533;51.246;6.850;2022-07-26T07:44:55;25.00;49.40
6986;DHT22;3533;51.246;6.850;2022-07-26T07:47:21;25.00;49.40
6986;DHT22;3533;51.246;6.850;2022-07-26T07:49:46;25.00;49.30
6986;DHT22;3533;51.246;6.850;2022-07-26T07:52:12;25.00;49.40
6986;DHT22;3533;51.246;6.850;2022-07-26T07:54:38;25.00;49.40
6986;DHT22;3533;51.246;6.850;2022-07-26T07:57:04;25.00;49.30
6986;DHT22;3533;51.246;6.850;2022-07-26T07:59:29;25.00;49.40
6986;DHT22;3533;51.246;6.850;2022-07-26T08:01:55;25.00;49.40
6986;DHT22;3533;51.246;6.850;2022-07-26T08:04:21;25.00;49.40
6986;DHT22;3533;51.246;6.850;2022-07-26T08:06:47;25.00;49.40
6986;DHT22;3533;51.246;6.850;2022-07-26T08:09:12;25.00;49.40
6986;DHT22;3533;51.246;6.850;2022-07-26T08:11:38;25.00;49.40
6986;DHT22;3533;51.246;6.850;2022-07-26T08:14:04;25.00;49.40
6986;DHT22;3533;51.246;6.850;2022-07-26T08:16:30;25.00;49.40
6986;DHT22;3533;51.246;6.850;2022-07-26T08:18:55;25.00;49.30
6986;DHT22;3533;51.246;6.850;2022-07-26T08:21:21;25.00;49.40
6986;DHT22;3533;51.246;6.850;2022-07-26T08:23:47;25.00;49.40
6986;DHT22;3533;51.246;6.850;2022-07-26T08:26:14;25.00;49.40
6986;DHT22;3533;51.246;6.850;2022-07-26T08:28:39;25.00;49.40
6986;DHT22;3533;51.246;6.850;2022-07-26T08:31:05;25.00;49.40
6986;DHT22;3533;51.246;6.850;2022-07-26T08:33:31;25.00;49.40
6986;DHT22;3533;51.246;6.850;2022-07-26T08:35:57;25.00;49.30
6986;DHT22;3533;51.246;6.850;2022-07-26T08:38:23;25.00;49.40
6986;DHT22;3533;51.246;6.850;2022-07-26T08:40:49;25.00;49.40
6986;DHT22;3533;51.246;6.850;2022-07-26T08:43:15;25.00;49.40
6986;DHT22;3533;51.246;6.850;2022-07-26T08:45:41;25.00;49.40
6986;DHT22;3533;51.246;6.850;2022-07-26T08:48:06;25.00;49.40
6986;DHT22;3533;51.246;6.850;2022-07-26T08:50:32;25.00;49.60
6986;DHT22;3533;51.246;6.850;2022-07-26T08:53:01;25.00;49.40
6986;DHT22;3533;51.246;6.850;2022-07-26T08:55:28;25.00;49.40
6986;DHT22;3533;51.246;6.850;2022-07-26T08:57:55;25.00;49.40
6986;DHT22;3533;51.246;6.850;2022-07-26T09:00:27;25.00;49.50
6986;DHT22;3533;51.246;6.850;2022-07-26T09:03:00;25.00;49.50
6986;DHT22;3533;51.246;6.850;2022-07-26T09:05:35;25.00;49.50
6986;DHT22;3533;51.246;6.850;2022-07-26T09:08:24;25.00;49.50
6986;DHT22;3533;51.246;6.850;2022-07-26T09:10:50;25.00;49.50
6986;DHT22;3533;51.246;6.850;2022-07-26T09:13:16;25.00;49.60
6986;DHT22;3533;51.246;6.850;2022-07-26T09:15:42;25.00;49.70
6986;DHT22;3533;51.246;6.850;2022-07-26T09:18:24;25.00;49.50
6986;DHT22;3533;51.246;6.850;2022-07-26T09:20:51;25.00;49.40
6986;DHT22;3533;51.246;6.850;2022-07-26T09:23:17;25.00;49.50
6986;DHT22;3533;51.246;6.850;2022-07-26T09:25:44;25.00;49.40
6986;DHT22;3533;51.246;6.850;2022-07-26T09:28:30;25.00;49.50
6986;DHT22;3533;51.246;6.850;2022-07-26T09:30:59;25.00;49.40
6986;DHT22;3533;51.246;6.850;2022-07-26T09:33:27;25.00;49.50
6986;DHT22;3533;51.246;6.850;2022-07-26T09:36:08;25.00;49.50
6986;DHT22;3533;51.246;6.850;2022-07-26T09:38:49;25.00;49.50
6986;DHT22;3533;51.246;6.850;2022-07-26T09:43:52;25.00;49.60
6986;DHT22;3533;51.246;6.850;2022-07-26T09:46:18;25.00;49.60
6986;DHT22;3533;51.246;6.850;2022-07-26T09:48:45;25.00;49.50
6986;DHT22;3533;51.246;6.850;2022-07-26T09:51:11;25.00;49.50
6986;DHT22;3533;51.246;6.850;2022-07-26T09:53:46;25.00;49.50
6986;DHT22;3533;51.246;6.850;2022-07-26T09:56:13;24.90;49.40
6986;DHT22;3533;51.246;6.850;2022-07-26T09:58:40;25.00;49.50
6986;DHT22;3533;51.246;6.850;2022-07-26T10:01:06;25.00;49.50
6986;DHT22;3533;51.246;6.850;2022-07-26T10:03:34;25.00;49.60
6986;DHT22;3533;51.246;6.850;2022-07-26T10:06:00;25.00;49.50
6986;DHT22;3533;51.246;6.850;2022-07-26T10:08:26;25.00;49.50
6986;DHT22;3533;51.246;6.850;2022-07-26T10:11:08;25.00;49.50
6986;DHT22;3533;51.246;6.850;2022-07-26T10:13:34;25.00;49.50
6986;DHT22;3533;51.246;6.850;2022-07-26T10:16:00;25.00;49.60
6986;DHT22;3533;51.246;6.850;2022-07-26T10:21:16;25.00;49.60
6986;DHT22;3533;51.246;6.850;2022-07-26T10:23:44;25.00;49.60
6986;DHT22;3533;51.246;6.850;2022-07-26T10:31:43;25.00;49.60
6986;DHT22;3533;51.246;6.850;2022-07-26T10:34:10;25.00;49.60
6986;DHT22;3533;51.246;6.850;2022-07-26T10:36:38;25.00;49.60
6986;DHT22;3533;51.246;6.850;2022-07-26T10:39:21;25.00;49.60
6986;DHT22;3533;51.246;6.850;2022-07-26T10:41:58;25.00;49.60
6986;DHT22;3533;51.246;6.850;2022-07-26T10:44:27;25.00;49.60
6986;DHT22;3533;51.246;6.850;2022-07-26T10:49:43;25.00;49.60
6986;DHT22;3533;51.246;6.850;2022-07-26T10:52:17;25.00;49.60
6986;DHT22;3533;51.246;6.850;2022-07-26T10:59:56;25.00;49.60
6986;DHT22;3533;51.246;6.850;2022-07-26T11:02:24;25.00;49.60
6986;DHT22;3533;51.246;6.850;2022-07-26T11:05:08;25.00;49.60
6986;DHT22;3533;51.246;6.850;2022-07-26T11:07:48;25.00;49.50
6986;DHT22;3533;51.246;6.850;2022-07-26T11:10:14;25.00;49.60
6986;DHT22;3533;51.246;6.850;2022-07-26T11:12:40;25.00;49.60
6986;DHT22;3533;51.246;6.850;2022-07-26T11:15:17;25.00;49.60
6986;DHT22;3533;51.246;6.850;2022-07-26T11:17:43;25.00;49.60
6986;DHT22;3533;51.246;6.850;2022-07-26T11:20:09;25.00;49.60
6986;DHT22;3533;51.246;6.850;2022-07-26T11:22:35;25.00;49.50
6986;DHT22;3533;51.246;6.850;2022-07-26T11:25:02;25.00;49.60
6986;DHT22;3533;51.246;6.850;2022-07-26T11:27:29;25.00;49.60
6986;DHT22;3533;51.246;6.850;2022-07-26T11:30:01;25.00;49.50
6986;DHT22;3533;51.246;6.850;2022-07-26T11:32:27;25.00;49.60
6986;DHT22;3533;51.246;6.850;2022-07-26T11:35:03;25.00;49.60
6986;DHT22;3533;51.246;6.850;2022-07-26T11:37:29;25.00;49.50
6986;DHT22;3533;51.246;6.850;2022-07-26T11:39:55;25.00;49.60
6986;DHT22;3533;51.246;6.850;2022-07-26T11:42:21;25.00;49.60
6986;DHT22;3533;51.246;6.850;2022-07-26T11:44:49;25.00;49.60
6986;DHT22;3533;51.246;6.850;2022-07-26T11:47:15;25.00;49.60
6986;DHT22;3533;51.246;6.850;2022-07-26T11:49:44;25.00;49.60
6986;DHT22;3533;51.246;6.850;2022-07-26T11:52:10;25.00;49.50
6986;DHT22;3533;51.246;6.850;2022-07-26T11:54:50;24.90;49.50
6986;DHT22;3533;51.246;6.850;2022-07-26T11:57:17;25.00;49.60
6986;DHT22;3533;51.246;6.850;2022-07-26T11:59:46;25.00;49.60
6986;DHT22;3533;51.246;6.850;2022-07-26T12:02:13;25.00;49.60
6986;DHT22;3533;51.246;6.850;2022-07-26T12:04:41;25.00;49.60
6986;DHT22;3533;51.246;6.850;2022-07-26T12:07:12;24.90;49.60
6986;DHT22;3533;51.246;6.850;2022-07-26T12:09:41;25.00;49.60
6986;DHT22;3533;51.246;6.850;2022-07-26T12:12:17;25.00;49.60
6986;DHT22;3533;51.246;6.850;2022-07-26T12:14:58;25.00;49.60
6986;DHT22;3533;51.246;6.850;2022-07-26T12:17:24;25.00;49.60
6986;DHT22;3533;51.246;6.850;2022-07-26T12:19:49;25.00;49.60
6986;DHT22;3533;51.246;6.850;2022-07-26T12:22:17;25.00;49.60
6986;DHT22;3533;51.246;6.850;2022-07-26T12:24:54;25.00;49.70
6986;DHT22;3533;51.246;6.850;2022-07-26T12:27:28;25.00;49.60
6986;DHT22;3533;51.246;6.850;2022-07-26T12:30:13;25.00;49.60
6986;DHT22;3533;51.246;6.850;2022-07-26T12:32:41;25.00;49.60
6986;DHT22;3533;51.246;6.850;2022-07-26T12:35:15;24.90;49.60
6986;DHT22;3533;51.246;6.850;2022-07-26T12:40:10;25.00;49.70
6986;DHT22;3533;51.246;6.850;2022-07-26T12:42:39;25.00;49.70
6986;DHT22;3533;51.246;6.850;2022-07-26T12:45:08;25.00;49.70
6986;DHT22;3533;51.246;6.850;2022-07-26T12:47:35;25.00;49.70
6986;DHT22;3533;51.246;6.850;2022-07-26T12:50:03;25.00;49.70
6986;DHT22;3533;51.246;6.850;2022-07-26T12:52:29;25.00;49.70
6986;DHT22;3533;51.246;6.850;2022-07-26T12:54:55;25.00;49.70
6986;DHT22;3533;51.246;6.850;2022-07-26T12:57:21;25.00;49.70
6986;DHT22;3533;51.246;6.850;2022-07-26T12:59:47;25.00;49.80
6986;DHT22;3533;51.246;6.850;2022-07-26T13:02:17;25.00;49.70
6986;DHT22;3533;51.246;6.850;2022-07-26T13:04:45;25.00;49.70
6986;DHT22;3533;51.246;6.850;2022-07-26T13:07:11;25.00;49.70
6986;DHT22;3533;51.246;6.850;2022-07-26T13:09:37;25.00;49.70
6986;DHT22;3533;51.246;6.850;2022-07-26T13:12:04;25.00;49.70
6986;DHT22;3533;51.246;6.850;2022-07-26T13:14:32;25.00;49.70
6986;DHT22;3533;51.246;6.850;2022-07-26T13:16:58;25.00;49.70
6986;DHT22;3533;51.246;6.850;2022-07-26T13:19:24;25.00;49.70
6986;DHT22;3533;51.246;6.850;2022-07-26T13:21:50;25.00;49.70
6986;DHT22;3533;51.246;6.850;2022-07-26T13:24:15;25.00;49.70
6986;DHT22;3533;51.246;6.850;2022-07-26T13:26:41;25.00;49.70
6986;DHT22;3533;51.246;6.850;2022-07-26T13:29:07;25.00;49.70
6986;DHT22;3533;51.246;6.850;2022-07-26T13:31:33;25.00;49.80
6986;DHT22;3533;51.246;6.850;2022-07-26T13:33:59;25.00;49.70
6986;DHT22;3533;51.246;6.850;2022-07-26T13:36:25;25.00;49.70
6986;DHT22;3533;51.246;6.850;2022-07-26T13:38:50;25.00;49.90
6986;DHT22;3533;51.246;6.850;2022-07-26T13:41:17;25.00;49.70
6986;DHT22;3533;51.246;6.850;2022-07-26T13:43:42;25.00;49.70
6986;DHT22;3533;51.246;6.850;2022-07-26T13:46:09;25.00;49.70
6986;DHT22;3533;51.246;6.850;2022-07-26T13:48:35;25.00;49.70
6986;DHT22;3533;51.246;6.850;2022-07-26T13:51:00;25.00;49.70
6986;DHT22;3533;51.246;6.850;2022-07-26T13:53:26;25.00;50.60
6986;DHT22;3533;51.246;6.850;2022-07-26T13:55:54;25.00;49.80
6986;DHT22;3533;51.246;6.850;2022-07-26T13:58:21;25.00;49.70
6986;DHT22;3533;51.246;6.850;2022-07-26T14:00:47;25.00;49.70
6986;DHT22;3533;51.246;6.850;2022-07-26T14:03:13;25.00;49.80
6986;DHT22;3533;51.246;6.850;2022-07-26T14:05:38;25.00;49.70
6986;DHT22;3533;51.246;6.850;2022-07-26T14:08:04;25.00;49.70
6986;DHT22;3533;51.246;6.850;2022-07-26T14:10:32;25.00;49.80
6986;DHT22;3533;51.246;6.850;2022-07-26T14:13:02;25.00;49.90
6986;DHT22;3533;51.246;6.850;2022-07-26T14:15:29;25.00;49.80
6986;DHT22;3533;51.246;6.850;2022-07-26T14:17:54;25.00;49.80
6986;DHT22;3533;51.246;6.850;2022-07-26T14:20:20;25.00;49.80
6986;DHT22;3533;51.246;6.850;2022-07-26T14:22:46;25.00;49.70
6986;DHT22;3533;51.246;6.850;2022-07-26T14:25:12;25.00;49.70
6986;DHT22;3533;51.246;6.850;2022-07-26T14:27:38;25.00;49.70
6986;DHT22;3533;51.246;6.850;2022-07-26T14:30:04;25.00;49.80
6986;DHT22;3533;51.246;6.850;2022-07-26T14:32:30;25.00;49.70
6986;DHT22;3533;51.246;6.850;2022-07-26T14:34:56;25.00;49.70
6986;DHT22;3533;51.246;6.850;2022-07-26T14:37:21;25.00;49.70
6986;DHT22;3533;51.246;6.850;2022-07-26T14:39:47;25.00;49.70
6986;DHT22;3533;51.246;6.850;2022-07-26T14:42:13;25.00;49.70
6986;DHT22;3533;51.246;6.850;2022-07-26T14:44:39;25.00;49.70
6986;DHT22;3533;51.246;6.850;2022-07-26T14:47:05;25.00;49.70
6986;DHT22;3533;51.246;6.850;2022-07-26T14:49:33;25.00;49.60
6986;DHT22;3533;51.246;6.850;2022-07-26T14:52:00;25.00;49.70
6986;DHT22;3533;51.246;6.850;2022-07-26T14:54:25;25.00;49.60
6986;DHT22;3533;51.246;6.850;2022-07-26T14:56:51;25.00;49.70
6986;DHT22;3533;51.246;6.850;2022-07-26T14:59:17;25.00;49.70
6986;DHT22;3533;51.246;6.850;2022-07-26T15:01:43;25.00;49.70
6986;DHT22;3533;51.246;6.850;2022-07-26T15:04:09;25.00;49.70
6986;DHT22;3533;51.246;6.850;2022-07-26T15:06:35;25.00;49.70
6986;DHT22;3533;51.246;6.850;2022-07-26T15:09:01;25.00;49.60
6986;DHT22;3533;51.246;6.850;2022-07-26T15:11:26;25.00;49.70
6986;DHT22;3533;51.246;6.850;2022-07-26T15:13:52;25.00;49.70
6986;DHT22;3533;51.246;6.850;2022-07-26T15:16:18;25.00;49.70
6986;DHT22;3533;51.246;6.850;2022-07-26T15:18:45;25.00;49.70
6986;DHT22;3533;51.246;6.850;2022-07-26T15:21:10;25.00;49.70
6986;DHT22;3533;51.246;6.850;2022-07-26T15:23:38;25.00;49.70
6986;DHT22;3533;51.246;6.850;2022-07-26T15:26:05;25.00;49.70
6986;DHT22;3533;51.246;6.850;2022-07-26T15:28:31;25.00;49.70
6986;DHT22;3533;51.246;6.850;2022-07-26T15:30:57;25.00;49.70
6986;DHT22;3533;51.246;6.850;2022-07-26T15:33:23;25.00;49.70
6986;DHT22;3533;51.246;6.850;2022-07-26T15:35:49;25.00;49.70
6986;DHT22;3533;51.246;6.850;2022-07-26T15:38:17;25.00;49.70
6986;DHT22;3533;51.246;6.850;2022-07-26T15:40:43;24.90;49.60
6986;DHT22;3533;51.246;6.850;2022-07-26T15:43:09;25.00;49.60
6986;DHT22;3533;51.246;6.850;2022-07-26T15:45:35;25.00;49.60
6986;DHT22;3533;51.246;6.850;2022-07-26T15:48:01;25.00;49.70
6986;DHT22;3533;51.246;6.850;2022-07-26T15:50:29;25.00;49.70
6986;DHT22;3533;51.246;6.850;2022-07-26T15:52:54;25.00;49.60
6986;DHT22;3533;51.246;6.850;2022-07-26T15:55:20;24.90;49.60
6986;DHT22;3533;51.246;6.850;2022-07-26T15:57:47;25.00;49.60
6986;DHT22;3533;51.246;6.850;2022-07-26T16:00:13;24.90;49.50
6986;DHT22;3533;51.246;6.850;2022-07-26T16:02:40;25.00;49.60
6986;DHT22;3533;51.246;6.850;2022-07-26T16:05:06;25.00;49.60
6986;DHT22;3533;51.246;6.850;2022-07-26T16:07:32;25.00;49.60
6986;DHT22;3533;51.246;6.850;2022-07-26T16:09:58;25.00;49.60
6986;DHT22;3533;51.246;6.850;2022-07-26T16:12:26;25.00;49.50
6986;DHT22;3533;51.246;6.850;2022-07-26T16:14:52;25.00;49.50
6986;DHT22;3533;51.246;6.850;2022-07-26T16:17:17;25.00;49.60
6986;DHT22;3533;51.246;6.850;2022-07-26T16:19:43;25.00;49.50
6986;DHT22;3533;51.246;6.850;2022-07-26T16:22:09;25.00;49.60